Time;durP1;ratioP1;P1;durP2;ratioP2;P2;SDS_P1;SDS_P2;PMS_P1;PMS_P2;Temp;Humidity;BMP_temperature;BMP_pressure;BME280_temperature;BME280_humidity;BME280_pressure;Samples;Min_cycle;Max_cycle;Signal;HPM_P1;HPM_P2
2021/12/31 00:01:03;;;;;;;;;;;;;;;9.18;64.08;100349.09;5052004;28;19924;-88
2021/12/31 00:03:29;;;;;;;;;;;;;;;9.14;64.59;100359.63;5049022;28;19936;-87
2021/12/31 00:05:54;;;;;;;;;;;;;;;9.23;63.80;100364.00;5049171;28;19931;-87
2021/12/31 00:08:19;;;;;;;;;;;;;;;9.29;64.16;100368.41;5049683;28;20011;-87
2021/12/31 00:10:45;;;;;;;;;;;;;;;9.24;63.87;100362.25;5049345;28;20023;-87
2021/12/31 00:13:10;;;;;;;;;;;;;;;9.27;64.05;100371.03;5049181;28;19921;-88
2021/12/31 00:15:35;;;;;;;;;;;;;;;9.22;64.89;100372.78;5058907;28;19931;-88
2021/12/31 00:18:01;;;;;;;;;;;;;;;9.33;64.92;100372.81;5069052;28;19921;-87
2021/12/31 00:20:26;;;;;;;;;;;;;;;9.13;65.01;100371.00;5067156;28;20709;-88
2021/12/31 00:25:20;;;;;;;;;;;;;;;9.16;64.62;100377.16;5051914;28;19927;-88
2021/12/31 00:27:46;;;;;;;;;;;;;;;9.17;65.49;100381.53;5048989;28;19917;-88
2021/12/31 00:30:11;;;;;;;;;;;;;;;9.17;65.51;100373.66;5049115;28;20039;-87
2021/12/31 00:32:37;;;;;;;;;;;;;;;9.17;65.96;100378.91;5048873;28;19921;-88
2021/12/31 00:35:02;;;;;;;;;;;;;;;9.06;66.38;100377.13;5058164;28;19924;-87
2021/12/31 00:37:32;;;;;;;;;;;;;;;9.03;66.21;100378.88;5067166;28;19964;-87
2021/12/31 00:39:57;;;;;;;;;;;;;;;9.08;66.10;100370.13;5068591;28;19927;-87
2021/12/31 00:42:23;;;;;;;;;;;;;;;8.95;66.95;100369.22;5069544;28;20309;-88
2021/12/31 00:44:48;;;;;;;;;;;;;;;8.95;67.11;100374.47;5061885;28;19982;-88
2021/12/31 00:47:14;;;;;;;;;;;;;;;8.93;66.82;100368.34;5048910;28;19974;-87
2021/12/31 00:49:40;;;;;;;;;;;;;;;8.80;67.01;100357.78;5048508;28;19920;-87
2021/12/31 00:52:07;;;;;;;;;;;;;;;8.95;67.27;100357.81;5048407;28;20367;-87
2021/12/31 00:54:32;;;;;;;;;;;;;;;8.84;67.31;100362.19;5055755;28;19978;-87
2021/12/31 00:57:02;;;;;;;;;;;;;;;8.80;67.79;100368.28;5061751;28;19921;-87
2021/12/31 00:59:27;;;;;;;;;;;;;;;8.76;67.67;100364.78;5048117;28;19924;-86
2021/12/31 01:01:53;;;;;;;;;;;;;;;8.79;67.00;100356.91;5047980;28;20417;-88
2021/12/31 01:04:19;;;;;;;;;;;;;;;8.53;67.37;100367.34;5052380;28;19975;-87
2021/12/31 01:06:44;;;;;;;;;;;;;;;8.69;67.08;100358.59;5064846;28;20023;-88
2021/12/31 01:09:09;;;;;;;;;;;;;;;8.58;67.00;100355.94;5047150;28;19925;-88
2021/12/31 01:11:35;;;;;;;;;;;;;;;8.64;67.21;100347.19;5048679;28;19952;-88
2021/12/31 01:14:04;;;;;;;;;;;;;;;8.56;67.31;100355.06;5043651;28;19954;-87
2021/12/31 01:16:38;;;;;;;;;;;;;;;8.81;66.50;100343.75;5066198;28;20428;-87
2021/12/31 01:21:31;;;;;;;;;;;;;;;8.76;66.57;100343.75;5047275;28;19956;-87
2021/12/31 01:23:58;;;;;;;;;;;;;;;8.85;66.15;100329.72;5053710;28;19935;-87
2021/12/31 01:26:24;;;;;;;;;;;;;;;8.82;66.12;100327.06;5066605;28;19917;-86
2021/12/31 01:28:49;;;;;;;;;;;;;;;8.60;67.14;100332.28;5066311;28;19916;-88
2021/12/31 01:31:14;;;;;;;;;;;;;;;8.84;66.18;100331.47;5050459;28;19948;-87
2021/12/31 01:33:40;;;;;;;;;;;;;;;8.70;66.69;100334.06;5053967;28;19924;-88
2021/12/31 01:36:05;;;;;;;;;;;;;;;8.76;66.01;100328.81;5067079;28;19920;-88
2021/12/31 01:38:30;;;;;;;;;;;;;;;8.58;66.47;100326.16;5050476;28;19954;-88
2021/12/31 01:40:56;;;;;;;;;;;;;;;8.47;66.80;100335.75;5048985;28;20259;-88
2021/12/31 01:43:21;;;;;;;;;;;;;;;8.56;67.13;100335.78;5051428;28;20412;-88
2021/12/31 01:45:54;;;;;;;;;;;;;;;8.74;66.00;100335.84;5067291;28;20446;-88
2021/12/31 01:50:49;;;;;;;;;;;;;;;8.71;65.76;100334.94;5067296;28;19924;-88
2021/12/31 01:53:14;;;;;;;;;;;;;;;8.62;66.02;100334.91;5075604;28;19929;-88
2021/12/31 01:55:40;;;;;;;;;;;;;;;8.50;66.58;100331.38;5047406;28;19925;-88
2021/12/31 01:58:07;;;;;;;;;;;;;;;8.56;66.17;100323.50;5059894;28;20352;-88
2021/12/31 02:00:33;;;;;;;;;;;;;;;8.37;66.73;100326.91;5067290;28;20362;-88
2021/12/31 02:03:00;;;;;;;;;;;;;;;8.41;66.54;100329.56;5062720;28;19931;-87
2021/12/31 02:05:25;;;;;;;;;;;;;;;8.47;66.36;100317.34;5046594;28;20016;-88
2021/12/31 02:07:50;;;;;;;;;;;;;;;8.40;66.65;100313.75;5046978;28;20020;-87
2021/12/31 02:10:16;;;;;;;;;;;;;;;8.30;66.76;100318.13;5046277;28;20007;-88
2021/12/31 02:12:45;;;;;;;;;;;;;;;8.18;66.48;100323.31;5047213;28;19920;-88
2021/12/31 02:15:11;;;;;;;;;;;;;;;8.09;67.06;100312.75;5036452;28;19921;-88
2021/12/31 02:17:37;;;;;;;;;;;;;;;8.03;66.74;100318.84;5047809;28;19925;-88
2021/12/31 02:20:07;;;;;;;;;;;;;;;7.93;67.08;100315.31;5046411;28;19931;-88
2021/12/31 02:22:37;;;;;;;;;;;;;;;7.84;67.22;100305.63;5051032;28;20413;-88
2021/12/31 02:25:03;;;;;;;;;;;;;;;7.79;67.44;100303.84;5067065;28;19920;-88
2021/12/31 02:27:28;;;;;;;;;;;;;;;7.56;67.87;100306.31;5058736;28;20379;-88
2021/12/31 02:29:54;;;;;;;;;;;;;;;7.64;68.22;100307.25;5044842;28;19924;-88
2021/12/31 02:32:19;;;;;;;;;;;;;;;7.55;68.56;100321.19;5040294;28;20016;-87
2021/12/31 02:34:45;;;;;;;;;;;;;;;7.53;68.64;100331.66;5026014;28;19964;-87
2021/12/31 02:37:10;;;;;;;;;;;;;;;7.39;69.36;100325.44;5029725;28;19928;-87
2021/12/31 02:39:38;;;;;;;;;;;;;;;7.34;69.21;100322.78;5046941;28;20735;-87
2021/12/31 02:42:05;;;;;;;;;;;;;;;7.39;69.40;100321.94;5043345;28;19925;-87
2021/12/31 02:44:30;;;;;;;;;;;;;;;7.09;70.05;100329.56;5042873;28;20007;-87
2021/12/31 02:46:55;;;;;;;;;;;;;;;7.08;69.71;100335.69;5046584;28;20015;-87
2021/12/31 02:49:24;;;;;;;;;;;;;;;6.97;70.81;100346.06;5046057;28;20007;-86
2021/12/31 02:51:49;;;;;;;;;;;;;;;6.73;71.75;100365.03;5040712;28;20027;-86
2021/12/31 02:54:15;;;;;;;;;;;;;;;6.74;72.87;100366.78;5046546;28;20004;-88
2021/12/31 02:56:41;;;;;;;;;;;;;;;6.73;73.21;100372.03;5046338;28;19928;-87
2021/12/31 02:59:07;;;;;;;;;;;;;;;6.81;73.09;100363.38;5044861;28;19929;-87
2021/12/31 03:01:32;;;;;;;;;;;;;;;6.66;74.01;100365.84;5045367;28;19925;-87
2021/12/31 03:03:58;;;;;;;;;;;;;;;6.75;73.97;100371.19;5046504;28;19986;-88
2021/12/31 03:06:24;;;;;;;;;;;;;;;6.86;73.29;100371.31;5043529;28;19940;-88
2021/12/31 03:08:52;;;;;;;;;;;;;;;6.90;73.30;100364.34;5045241;28;19925;-87
2021/12/31 03:11:19;;;;;;;;;;;;;;;6.81;73.03;100365.13;5045917;28;20044;-87
2021/12/31 03:13:45;;;;;;;;;;;;;;;6.64;73.45;100372.78;5046681;28;19917;-87
2021/12/31 03:16:10;;;;;;;;;;;;;;;6.62;73.64;100366.66;5050256;28;19920;-87
2021/12/31 03:18:36;;;;;;;;;;;;;;;6.65;73.42;100376.31;5051108;28;19932;-87
2021/12/31 03:21:06;;;;;;;;;;;;;;;6.44;73.99;100383.03;5034161;28;19925;-87
2021/12/31 03:23:32;;;;;;;;;;;;;;;6.50;74.77;100377.84;5049909;28;20387;-87
2021/12/31 03:25:58;;;;;;;;;;;;;;;6.53;73.97;100380.53;5049459;28;19927;-88
2021/12/31 03:28:24;;;;;;;;;;;;;;;6.43;74.77;100389.16;5049006;28;19929;-88
2021/12/31 03:30:50;;;;;;;;;;;;;;;6.47;74.42;100390.94;5045838;28;19968;-88
2021/12/31 03:33:15;;;;;;;;;;;;;;;6.45;74.60;100393.53;5049734;28;19951;-87
2021/12/31 03:35:41;;;;;;;;;;;;;;;6.48;74.42;100390.06;5049468;28;19917;-87
2021/12/31 03:38:07;;;;;;;;;;;;;;;6.40;74.68;100402.22;5049546;28;20306;-88
2021/12/31 03:40:32;;;;;;;;;;;;;;;6.38;74.14;100398.66;5048627;28;20382;-87
2021/12/31 03:42:57;;;;;;;;;;;;;;;6.44;73.67;100401.38;5048766;28;19983;-88
2021/12/31 03:45:23;;;;;;;;;;;;;;;6.47;73.72;100398.78;5048568;28;20360;-88
2021/12/31 03:47:48;;;;;;;;;;;;;;;6.31;74.73;100409.94;5043966;28;19925;-88
2021/12/31 03:50:13;;;;;;;;;;;;;;;6.08;75.77;100411.38;5037591;28;20045;-88
2021/12/31 03:52:39;;;;;;;;;;;;;;;6.05;76.02;100420.94;5049357;28;19955;-89
2021/12/31 03:55:06;;;;;;;;;;;;;;;5.86;77.04;100417.13;5029612;28;20011;-89
2021/12/31 03:57:32;;;;;;;;;;;;;;;5.87;77.41;100413.63;5029435;28;19921;-88
2021/12/31 03:59:57;;;;;;;;;;;;;;;5.84;77.39;100419.72;5030672;28;19935;-93
2021/12/31 04:02:22;;;;;;;;;;;;;;;6.03;76.86;100420.03;5047351;28;20456;-90
2021/12/31 04:04:47;;;;;;;;;;;;;;;6.02;76.13;100420.88;5030466;28;20330;-88
2021/12/31 04:07:13;;;;;;;;;;;;;;;5.94;76.68;100419.84;5029442;28;19974;-89
2021/12/31 04:09:38;;;;;;;;;;;;;;;6.07;76.20;100429.66;5029895;28;19975;-89
2021/12/31 04:12:04;;;;;;;;;;;;;;;6.16;75.62;100424.56;5028956;28;20310;-88
2021/12/31 04:14:29;;;;;;;;;;;;;;;6.18;75.52;100427.22;5046792;28;20367;-87
2021/12/31 04:16:54;;;;;;;;;;;;;;;6.10;75.72;100419.25;5028796;28;20019;-86
2021/12/31 04:19:20;;;;;;;;;;;;;;;6.13;75.75;100424.53;5028962;28;20299;-85
2021/12/31 04:21:45;;;;;;;;;;;;;;;6.07;75.69;100422.72;5029001;28;20358;-88
2021/12/31 04:24:26;;;;;;;;;;;;;;;5.98;76.44;100417.34;5028436;28;19924;-89
2021/12/31 04:26:51;;;;;;;;;;;;;;;6.13;76.00;100415.78;5028979;28;19925;-90
2021/12/31 04:29:16;;;;;;;;;;;;;;;6.13;75.95;100415.78;5034594;28;19929;-92
2021/12/31 04:31:43;;;;;;;;;;;;;;;6.23;75.37;100423.81;5029311;28;19925;-91
2021/12/31 04:34:08;;;;;;;;;;;;;;;6.23;75.56;100426.44;5044620;28;20319;-90
2021/12/31 04:36:34;;;;;;;;;;;;;;;6.36;75.10;100427.47;5029565;28;19921;-91
2021/12/31 04:38:59;;;;;;;;;;;;;;;6.45;74.49;100426.72;5028324;28;20322;-88
2021/12/31 04:41:24;;;;;;;;;;;;;;;6.47;74.78;100424.13;5039218;28;19959;-88
2021/12/31 04:43:50;;;;;;;;;;;;;;;6.30;75.04;100435.25;5048406;28;19920;-88
2021/12/31 04:46:15;;;;;;;;;;;;;;;6.39;75.22;100451.09;5047790;28;19921;-86
2021/12/31 04:48:41;;;;;;;;;;;;;;;6.30;75.88;100452.72;5042290;28;19955;-86
2021/12/31 04:51:06;;;;;;;;;;;;;;;6.36;75.24;100461.53;5040356;28;20008;-85
2021/12/31 04:53:31;;;;;;;;;;;;;;;6.42;75.42;100459.00;5049860;28;19960;-84
2021/12/31 04:55:57;;;;;;;;;;;;;;;6.45;74.90;100466.91;5028634;28;19932;-84
2021/12/31 04:58:22;;;;;;;;;;;;;;;6.53;74.67;100460.91;5029083;28;20309;-84
2021/12/31 05:00:47;;;;;;;;;;;;;;;6.59;74.79;100450.50;5027912;28;20028;-85
2021/12/31 05:03:14;;;;;;;;;;;;;;;6.56;74.14;100460.94;5034671;28;20383;-85
2021/12/31 05:05:39;;;;;;;;;;;;;;;6.60;74.43;100454.91;5048770;28;19917;-87
2021/12/31 05:08:05;;;;;;;;;;;;;;;6.67;74.06;100468.97;5041833;28;19943;-87
2021/12/31 05:10:32;;;;;;;;;;;;;;;6.60;74.16;100465.38;5029081;28;19922;-88
2021/12/31 05:12:58;;;;;;;;;;;;;;;6.68;74.15;100460.25;5036669;28;19976;-87
2021/12/31 05:15:27;;;;;;;;;;;;;;;6.50;74.30;100474.84;5051568;28;19920;-87
2021/12/31 05:17:53;;;;;;;;;;;;;;;6.59;73.96;100474.09;5048297;28;19924;-87
2021/12/31 05:20:18;;;;;;;;;;;;;;;6.65;73.43;100479.44;5048826;28;19927;-87
2021/12/31 05:22:44;;;;;;;;;;;;;;;6.72;73.19;100485.63;5049453;28;19943;-88
2021/12/31 05:25:09;;;;;;;;;;;;;;;6.72;72.98;100488.25;5068551;28;20373;-88
2021/12/31 05:27:34;;;;;;;;;;;;;;;6.88;72.71;100486.72;5066299;28;19924;-88
2021/12/31 05:30:00;;;;;;;;;;;;;;;6.92;72.42;100481.53;5067327;28;20382;-89
2021/12/31 05:32:25;;;;;;;;;;;;;;;6.90;72.32;100483.25;5047946;28;19978;-88
2021/12/31 05:34:50;;;;;;;;;;;;;;;6.69;72.82;100481.25;5066021;28;19932;-88
2021/12/31 05:37:16;;;;;;;;;;;;;;;6.67;73.14;100479.44;5065946;28;20163;-87
2021/12/31 05:39:41;;;;;;;;;;;;;;;6.74;73.04;100476.94;5052568;28;19927;-87
2021/12/31 05:42:07;;;;;;;;;;;;;;;6.84;72.83;100466.56;5047206;28;20346;-87
2021/12/31 05:44:32;;;;;;;;;;;;;;;6.66;73.24;100475.06;5048122;28;19924;-87
2021/12/31 05:46:57;;;;;;;;;;;;;;;6.81;72.14;100463.03;5047484;28;19917;-87
2021/12/31 05:49:23;;;;;;;;;;;;;;;6.52;73.38;100470.53;5048069;28;20398;-86
2021/12/31 05:51:50;;;;;;;;;;;;;;;6.69;73.12;100462.00;5047759;28;19978;-88
2021/12/31 05:54:15;;;;;;;;;;;;;;;6.79;72.46;100456.88;5060486;28;20022;-87
2021/12/31 05:56:40;;;;;;;;;;;;;;;6.76;72.57;100456.84;5083090;28;20007;-87
2021/12/31 05:59:06;;;;;;;;;;;;;;;6.62;73.09;100464.53;5067612;28;19943;-88
2021/12/31 06:01:31;;;;;;;;;;;;;;;6.36;74.18;100468.53;5051537;28;20375;-88
2021/12/31 06:03:56;;;;;;;;;;;;;;;6.36;74.50;100471.16;5061217;28;20382;-87
2021/12/31 06:06:22;;;;;;;;;;;;;;;6.39;74.33;100468.59;5066728;28;19999;-88
2021/12/31 06:08:47;;;;;;;;;;;;;;;6.53;73.67;100455.66;5062248;28;19924;-87
2021/12/31 06:11:12;;;;;;;;;;;;;;;6.54;73.40;100460.06;5052258;28;19924;-87
2021/12/31 06:13:38;;;;;;;;;;;;;;;6.52;73.70;100459.13;5065909;28;20515;-87
2021/12/31 06:16:06;;;;;;;;;;;;;;;6.49;73.96;100459.09;5067235;28;19978;-86
2021/12/31 06:18:31;;;;;;;;;;;;;;;6.67;73.35;100453.22;5048553;28;19927;-86
2021/12/31 06:20:57;;;;;;;;;;;;;;;6.80;72.21;100447.28;5046476;28;19921;-87
2021/12/31 06:23:22;;;;;;;;;;;;;;;6.76;72.80;100448.97;5059476;28;19924;-87
2021/12/31 06:25:47;;;;;;;;;;;;;;;6.64;72.87;100446.19;5067397;28;20037;-87
2021/12/31 06:28:13;;;;;;;;;;;;;;;6.67;73.08;100453.22;5052767;28;19928;-88
2021/12/31 06:30:38;;;;;;;;;;;;;;;6.73;72.67;100461.19;5059371;28;19928;-87
2021/12/31 06:33:03;;;;;;;;;;;;;;;6.88;72.74;100456.13;5053952;28;19931;-86
2021/12/31 06:35:29;;;;;;;;;;;;;;;6.91;72.17;100466.66;5066502;28;19920;-86
2021/12/31 06:37:56;;;;;;;;;;;;;;;7.14;71.30;100466.06;5055452;28;19932;-86
2021/12/31 06:40:22;;;;;;;;;;;;;;;7.23;70.92;100473.13;5040079;28;20411;-87
2021/12/31 06:42:48;;;;;;;;;;;;;;;7.24;71.09;100472.28;5049841;28;19924;-88
2021/12/31 06:45:13;;;;;;;;;;;;;;;7.22;70.86;100472.25;5066316;28;19916;-87
2021/12/31 06:47:38;;;;;;;;;;;;;;;7.43;70.38;100466.38;5057923;28;20019;-86
2021/12/31 06:50:04;;;;;;;;;;;;;;;7.43;69.63;100479.50;5050918;28;19933;-88
2021/12/31 06:52:29;;;;;;;;;;;;;;;7.46;69.64;100481.25;5053347;28;19925;-88
2021/12/31 06:54:55;;;;;;;;;;;;;;;7.54;69.67;100482.22;5049879;28;19932;-87
2021/12/31 06:57:20;;;;;;;;;;;;;;;7.49;69.85;100487.44;5050539;28;19965;-87
2021/12/31 06:59:46;;;;;;;;;;;;;;;7.57;70.31;100500.63;5050776;28;20326;-87
2021/12/31 07:02:11;;;;;;;;;;;;;;;7.60;69.75;100494.50;5050322;28;19932;-87
2021/12/31 07:04:36;;;;;;;;;;;;;;;7.74;70.04;100495.56;5050649;28;19924;-87
2021/12/31 07:07:01;;;;;;;;;;;;;;;8.11;69.54;100502.84;5049727;28;19993;-87
2021/12/31 07:09:27;;;;;;;;;;;;;;;8.25;68.25;100503.84;5050599;28;20059;-88
2021/12/31 07:11:52;;;;;;;;;;;;;;;8.20;68.29;100510.81;5049843;28;20332;-87
2021/12/31 07:14:17;;;;;;;;;;;;;;;8.03;68.50;100513.28;5050373;28;19928;-87
2021/12/31 07:16:43;;;;;;;;;;;;;;;8.10;69.07;100516.88;5050215;28;19959;-87
2021/12/31 07:19:08;;;;;;;;;;;;;;;8.19;68.05;100520.44;5050225;28;19921;-87
2021/12/31 07:21:34;;;;;;;;;;;;;;;8.22;68.90;100506.47;5049180;28;19932;-87
2021/12/31 07:23:59;;;;;;;;;;;;;;;8.22;68.48;100519.59;5050585;28;19924;-87
2021/12/31 07:26:24;;;;;;;;;;;;;;;8.16;69.64;100520.44;5054213;28;19924;-88
2021/12/31 07:28:50;;;;;;;;;;;;;;;8.42;68.74;100511.88;5043225;28;19929;-86
2021/12/31 07:31:16;;;;;;;;;;;;;;;8.20;69.06;100513.44;5050485;28;20007;-85
2021/12/31 07:33:42;;;;;;;;;;;;;;;8.38;69.10;100516.19;5050310;28;19925;-85
2021/12/31 07:36:07;;;;;;;;;;;;;;;8.40;69.12;100510.94;5055970;28;19920;-86
2021/12/31 07:38:36;;;;;;;;;;;;;;;8.34;68.39;100514.44;5050492;28;20402;-86
2021/12/31 07:41:02;;;;;;;;;;;;;;;8.29;68.62;100513.50;5050265;28;19916;-85
2021/12/31 07:43:27;;;;;;;;;;;;;;;8.49;67.55;100511.03;5049555;28;19971;-87
2021/12/31 07:45:53;;;;;;;;;;;;;;;8.36;67.59;100515.31;5039709;28;19925;-86
2021/12/31 07:48:18;;;;;;;;;;;;;;;8.59;67.90;100519.91;5051787;28;19916;-89
2021/12/31 07:50:44;;;;;;;;;;;;;;;8.23;68.11;100516.09;5048648;28;20652;-86
2021/12/31 07:53:09;;;;;;;;;;;;;;;8.42;67.82;100522.38;5049155;28;19917;-87
2021/12/31 07:55:35;;;;;;;;;;;;;;;8.34;67.56;100522.31;5048919;28;19932;-87
2021/12/31 07:58:01;;;;;;;;;;;;;;;8.49;67.75;100518.94;5056781;28;19924;-87
2021/12/31 08:00:27;;;;;;;;;;;;;;;8.35;67.86;100518.81;5067770;28;20389;-86
2021/12/31 08:02:56;;;;;;;;;;;;;;;8.52;66.68;100520.72;5069140;28;20007;-87
2021/12/31 08:05:25;;;;;;;;;;;;;;;8.46;65.19;100523.31;5068546;28;19920;-88
2021/12/31 08:07:50;;;;;;;;;;;;;;;8.62;66.14;100519.00;5066989;28;20706;-88
2021/12/31 08:10:15;;;;;;;;;;;;;;;8.47;65.08;100517.19;5069288;28;20022;-87
2021/12/31 08:12:41;;;;;;;;;;;;;;;8.55;65.15;100516.34;5068940;28;20376;-86
2021/12/31 08:15:06;;;;;;;;;;;;;;;8.99;65.66;100516.59;5068690;28;20408;-86
2021/12/31 08:17:31;;;;;;;;;;;;;;;9.20;64.52;100518.44;5062051;28;19924;-85
2021/12/31 08:19:57;;;;;;;;;;;;;;;9.46;63.82;100516.75;5067224;28;19962;-87
2021/12/31 08:22:22;;;;;;;;;;;;;;;9.26;63.54;100523.72;5063533;28;19935;-84
2021/12/31 08:24:48;;;;;;;;;;;;;;;9.11;63.80;100519.25;5057176;28;19921;-86
2021/12/31 08:27:13;;;;;;;;;;;;;;;9.17;63.39;100526.31;5048311;28;19917;-87
2021/12/31 08:29:38;;;;;;;;;;;;;;;9.13;64.37;100528.06;5051599;28;20435;-87
2021/12/31 08:32:04;;;;;;;;;;;;;;;9.33;63.93;100525.50;5048389;28;19928;-87
2021/12/31 08:34:29;;;;;;;;;;;;;;;9.49;63.12;100526.44;5046522;28;19947;-88
2021/12/31 08:36:55;;;;;;;;;;;;;;;9.86;62.98;100521.22;5054042;28;19955;-87
2021/12/31 08:39:20;;;;;;;;;;;;;;;9.85;61.67;100519.47;5066347;28;20011;-87
2021/12/31 08:41:45;;;;;;;;;;;;;;;9.83;61.92;100522.09;5051987;28;20054;-86
2021/12/31 08:44:11;;;;;;;;;;;;;;;9.76;62.49;100523.00;5048238;28;19927;-88
2021/12/31 08:46:36;;;;;;;;;;;;;;;9.98;62.08;100523.00;5048787;28;20047;-87
2021/12/31 08:49:02;;;;;;;;;;;;;;;9.63;61.92;100505.38;5059239;28;19925;-85
2021/12/31 08:51:27;;;;;;;;;;;;;;;9.87;62.05;100512.47;5047623;28;19924;-87
2021/12/31 08:53:53;;;;;;;;;;;;;;;9.81;61.53;100512.44;5036200;28;19932;-87
2021/12/31 08:56:18;;;;;;;;;;;;;;;9.87;61.90;100512.47;5048356;28;19928;-87
2021/12/31 08:58:44;;;;;;;;;;;;;;;9.91;61.54;100516.84;5047278;28;20405;-88
2021/12/31 09:01:09;;;;;;;;;;;;;;;9.97;62.02;100513.34;5048550;28;19921;-87
2021/12/31 09:03:34;;;;;;;;;;;;;;;10.10;61.85;100508.94;5048613;28;19924;-87
2021/12/31 09:06:00;;;;;;;;;;;;;;;9.98;60.67;100500.16;5047783;28;20299;-87
2021/12/31 09:08:25;;;;;;;;;;;;;;;10.05;60.59;100501.03;5052915;28;19924;-87
2021/12/31 09:10:51;;;;;;;;;;;;;;;9.86;60.41;100495.75;5062355;28;19920;-87
2021/12/31 09:13:16;;;;;;;;;;;;;;;9.66;60.83;100498.34;5058756;28;19928;-87
2021/12/31 09:15:41;;;;;;;;;;;;;;;9.88;59.79;100482.56;5047180;28;19921;-88
2021/12/31 09:18:09;;;;;;;;;;;;;;;9.98;60.04;100480.84;5046761;28;20150;-85
2021/12/31 09:20:34;;;;;;;;;;;;;;;10.11;60.30;100474.66;5063003;28;19939;-87
2021/12/31 09:23:00;;;;;;;;;;;;;;;10.36;60.97;100470.28;5049898;28;19964;-87
2021/12/31 09:25:26;;;;;;;;;;;;;;;10.48;60.44;100468.50;5057056;28;19974;-88
2021/12/31 09:27:51;;;;;;;;;;;;;;;10.27;59.18;100454.44;5048798;28;19932;-89
2021/12/31 09:30:16;;;;;;;;;;;;;;;10.52;59.29;100455.28;5049287;28;19931;-88
2021/12/31 09:32:42;;;;;;;;;;;;;;;10.47;58.66;100449.16;5058283;28;19928;-87
2021/12/31 09:35:07;;;;;;;;;;;;;;;10.55;57.99;100454.38;5065515;28;19920;-88
2021/12/31 09:37:33;;;;;;;;;;;;;;;10.51;57.52;100452.66;5066831;28;19920;-87
2021/12/31 09:39:58;;;;;;;;;;;;;;;10.50;58.35;100453.53;5051952;28;20003;-87
2021/12/31 09:42:24;;;;;;;;;;;;;;;10.59;58.49;100439.44;5044415;28;19920;-88
2021/12/31 09:44:49;;;;;;;;;;;;;;;10.77;58.86;100426.19;5059924;28;20118;-87
2021/12/31 09:47:15;;;;;;;;;;;;;;;10.55;58.26;100428.00;5043001;28;19923;-88
2021/12/31 09:49:41;;;;;;;;;;;;;;;10.69;58.07;100420.94;5045446;28;19921;-88
2021/12/31 09:52:10;;;;;;;;;;;;;;;10.75;57.76;100420.91;5045933;28;20090;-89
2021/12/31 09:54:36;;;;;;;;;;;;;;;11.00;58.10;100402.31;5045052;28;19916;-88
2021/12/31 09:57:02;;;;;;;;;;;;;;;10.97;57.88;100404.09;5046489;28;19921;-89
2021/12/31 09:59:27;;;;;;;;;;;;;;;10.78;57.51;100403.31;5046808;28;19986;-88
2021/12/31 10:01:53;;;;;;;;;;;;;;;10.78;56.30;100398.03;5046855;28;19921;-87
2021/12/31 10:04:19;;;;;;;;;;;;;;;10.92;57.78;100394.44;5046964;28;19920;-89
2021/12/31 10:07:04;;;;;;;;;;;;;;;11.19;56.89;100383.72;5046977;28;19917;-88
2021/12/31 10:09:31;;;;;;;;;;;;;;;11.16;56.29;100362.63;5039298;28;19924;-88
2021/12/31 10:11:57;;;;;;;;;;;;;;;11.34;56.52;100373.06;5047813;28;19931;-87
2021/12/31 10:14:32;;;;;;;;;;;;;;;11.40;56.09;100378.31;5046635;28;19921;-89
2021/12/31 10:16:58;;;;;;;;;;;;;;;11.74;55.08;100371.84;5047448;28;19921;-91
2021/12/31 10:19:23;;;;;;;;;;;;;;;11.62;55.12;100375.50;5046920;28;20461;-90
2021/12/31 10:21:54;;;;;;;;;;;;;;;11.50;54.84;100363.25;5046718;28;19921;-90
2021/12/31 10:24:23;;;;;;;;;;;;;;;11.60;54.69;100370.22;5045639;28;19920;-91
2021/12/31 10:26:50;;;;;;;;;;;;;;;11.74;55.29;100362.16;5044829;28;19960;-89
2021/12/31 10:29:15;;;;;;;;;;;;;;;11.68;55.22;100361.31;5046853;28;19925;-91
2021/12/31 10:31:42;;;;;;;;;;;;;;;11.85;54.40;100358.53;5044337;28;19921;-89
2021/12/31 10:34:23;;;;;;;;;;;;;;;11.74;53.18;100356.88;5046624;28;20708;-91
2021/12/31 10:36:48;;;;;;;;;;;;;;;12.07;53.60;100349.53;5046363;28;19940;-88
2021/12/31 10:39:15;;;;;;;;;;;;;;;12.23;52.97;100339.66;5044941;28;20295;-88
2021/12/31 10:41:41;;;;;;;;;;;;;;;12.47;52.09;100340.25;5045756;28;19921;-89
2021/12/31 10:44:06;;;;;;;;;;;;;;;12.47;50.40;100337.63;5046440;28;19995;-91
2021/12/31 10:46:31;;;;;;;;;;;;;;;12.47;50.70;100341.13;5045152;28;19972;-90
2021/12/31 10:49:03;;;;;;;;;;;;;;;12.41;50.47;100346.50;5046572;28;20383;-91
2021/12/31 10:51:34;;;;;;;;;;;;;;;12.48;51.71;100342.91;5046078;28;20375;-91
2021/12/31 10:54:15;;;;;;;;;;;;;;;12.42;50.92;100339.44;5046424;28;19993;-90
2021/12/31 10:56:41;;;;;;;;;;;;;;;12.30;52.27;100337.81;5045796;28;19924;-90
2021/12/31 10:59:06;;;;;;;;;;;;;;;12.56;51.05;100340.16;5045151;28;19921;-90
2021/12/31 11:01:32;;;;;;;;;;;;;;;12.60;50.70;100333.91;5045937;28;19939;-90
2021/12/31 11:03:58;;;;;;;;;;;;;;;12.67;50.08;100329.44;5045926;28;19920;-89
2021/12/31 11:06:23;;;;;;;;;;;;;;;12.75;50.43;100327.53;5044985;28;19970;-89
2021/12/31 11:08:51;;;;;;;;;;;;;;;12.95;50.18;100321.09;5052831;28;19921;-87
2021/12/31 11:11:19;;;;;;;;;;;;;;;12.48;50.20;100320.81;5055131;28;19924;-91
2021/12/31 11:13:44;;;;;;;;;;;;;;;12.32;51.36;100328.97;5045867;28;20004;-90
2021/12/31 11:16:10;;;;;;;;;;;;;;;12.55;52.35;100319.88;5052572;28;20020;-93
2021/12/31 11:18:36;;;;;;;;;;;;;;;12.42;52.18;100313.88;5065666;28;19924;-91
2021/12/31 11:21:04;;;;;;;;;;;;;;;12.33;52.71;100324.56;5062062;28;19921;-90
2021/12/31 11:23:30;;;;;;;;;;;;;;;12.33;52.00;100329.84;5063295;28;20306;-90
2021/12/31 11:26:06;;;;;;;;;;;;;;;12.02;52.69;100314.34;5066026;28;19924;-88
2021/12/31 11:28:33;;;;;;;;;;;;;;;12.00;52.78;100327.56;5062236;28;19931;-89
2021/12/31 11:31:16;;;;;;;;;;;;;;;12.11;53.46;100315.97;5065252;28;20409;-90
2021/12/31 11:33:43;;;;;;;;;;;;;;;12.20;53.61;100318.53;5056402;28;20437;-90
2021/12/31 11:36:10;;;;;;;;;;;;;;;12.22;54.91;100313.22;5067335;28;19920;-90
2021/12/31 11:38:42;;;;;;;;;;;;;;;12.38;54.24;100313.94;5053513;28;19925;-91
2021/12/31 11:41:08;;;;;;;;;;;;;;;12.54;53.23;100304.88;5048553;28;20074;-90
2021/12/31 11:43:34;;;;;;;;;;;;;;;12.59;53.60;100307.47;5049322;28;20640;-90
2021/12/31 11:46:08;;;;;;;;;;;;;;;12.41;53.05;100303.31;5049428;28;20390;-90
2021/12/31 11:48:52;;;;;;;;;;;;;;;12.32;53.55;100296.34;5062924;28;20270;-88
2021/12/31 11:51:28;;;;;;;;;;;;;;;12.23;54.47;100283.22;5069540;28;20073;-87
2021/12/31 11:54:06;;;;;;;;;;;;;;;12.35;54.95;100283.94;5069329;28;19923;-89
2021/12/31 11:56:31;;;;;;;;;;;;;;;12.53;53.70;100279.31;5069152;28;19928;-89
2021/12/31 11:58:57;;;;;;;;;;;;;;;12.46;53.58;100280.28;5050238;28;20311;-89
2021/12/31 12:01:37;;;;;;;;;;;;;;;12.52;53.82;100281.06;5049414;28;20015;-91
2021/12/31 12:04:21;;;;;;;;;;;;;;;12.71;53.97;100279.06;5048380;28;19921;-89
2021/12/31 12:06:54;;;;;;;;;;;;;;;12.72;52.72;100279.94;5058272;28;19997;-91
2021/12/31 12:09:19;;;;;;;;;;;;;;;12.94;53.17;100277.81;5068994;28;20018;-88
2021/12/31 12:12:03;;;;;;;;;;;;;;;12.92;53.10;100268.19;5067992;28;20034;-92
2021/12/31 12:14:29;;;;;;;;;;;;;;;12.77;54.45;100256.91;5063342;28;20382;-87
2021/12/31 12:16:55;;;;;;;;;;;;;;;12.99;53.90;100256.56;5048762;28;20028;-87
2021/12/31 12:19:20;;;;;;;;;;;;;;;13.10;53.88;100261.69;5065682;28;19956;-85
2021/12/31 12:21:51;;;;;;;;;;;;;;;12.96;53.77;100262.81;5045157;28;19971;-85
2021/12/31 12:24:22;;;;;;;;;;;;;;;12.83;53.50;100253.28;5040163;28;19931;-88
2021/12/31 12:26:48;;;;;;;;;;;;;;;12.85;53.66;100259.44;5049106;28;19927;-85
2021/12/31 12:29:23;;;;;;;;;;;;;;;13.10;53.76;100251.09;5047982;28;19921;-86
2021/12/31 12:32:06;;;;;;;;;;;;;;;13.02;53.09;100254.78;5045593;28;19921;-86
2021/12/31 12:34:31;;;;;;;;;;;;;;;13.19;53.80;100254.50;5047338;28;19931;-85
2021/12/31 12:36:57;;;;;;;;;;;;;;;13.06;53.40;100256.44;5047119;28;19925;-87
2021/12/31 12:39:22;;;;;;;;;;;;;;;13.24;53.40;100262.34;5048677;28;19960;-86
2021/12/31 12:41:48;;;;;;;;;;;;;;;13.11;53.32;100256.38;5047334;28;19986;-86
2021/12/31 12:44:16;;;;;;;;;;;;;;;13.12;52.98;100252.84;5048058;28;20023;-85
2021/12/31 12:46:51;;;;;;;;;;;;;;;13.40;53.23;100253.25;5047479;28;19928;-85